Lansing, New York
Current Conditions -  °F | °C
As of 2:56 PM on Thursday 27 Nov 2014 (Local Time) from KITH Reporting Station
Light Snow Light Snow  
Wind Chill: 23°   Ceiling: 1100
Heat Index: 28°   Visibility: 10mi
Dew Point: 25°   Wind: 5mph
Humidity: 89%   Direction: 330°NNW
Pressure: 30.02"   Gusts: NA
Location:  42.48°N, 76.48°W
Report Text: KITH 271956Z 33004KT 10SM -SN BKN011 OVC020 M02/M04 A3002 RMK AO2 T10221038 P0000 SLP179
Loading
Personal Weather Stations






























Interactive Weather Map New forecast layout! Learn more

10-Day Weather Forecast

Advertisements
Track Severe Weather on mobile